sensor_id;sensor_type;location;lat;lon;timestamp;pressure;altitude;pressure_sealevel;temperature
20848;BMP180;10584;50.854;12.902;2023-11-18T00:01:22;98648.00;;;3.50
20848;BMP180;10584;50.854;12.902;2023-11-18T00:06:45;98662.00;;;3.50
20848;BMP180;10584;50.854;12.902;2023-11-18T00:12:06;98664.00;;;3.60
20848;BMP180;10584;50.854;12.902;2023-11-18T00:17:31;98665.00;;;3.50
20848;BMP180;10584;50.854;12.902;2023-11-18T00:22:53;98667.00;;;3.50
20848;BMP180;10584;50.854;12.902;2023-11-18T00:28:16;98674.00;;;3.60
20848;BMP180;10584;50.854;12.902;2023-11-18T00:33:41;98686.00;;;3.40
20848;BMP180;10584;50.854;12.902;2023-11-18T00:39:03;98676.00;;;3.40
20848;BMP180;10584;50.854;12.902;2023-11-18T00:44:26;98694.00;;;3.40
20848;BMP180;10584;50.854;12.902;2023-11-18T00:49:47;98687.00;;;3.40
20848;BMP180;10584;50.854;12.902;2023-11-18T00:55:11;98698.00;;;3.40
20848;BMP180;10584;50.854;12.902;2023-11-18T01:00:32;98695.00;;;3.50
20848;BMP180;10584;50.854;12.902;2023-11-18T01:05:55;98705.00;;;3.60
20848;BMP180;10584;50.854;12.902;2023-11-18T01:11:20;98700.00;;;3.60
20848;BMP180;10584;50.854;12.902;2023-11-18T01:16:44;98693.00;;;3.60
20848;BMP180;10584;50.854;12.902;2023-11-18T01:22:06;98705.00;;;3.60
20848;BMP180;10584;50.854;12.902;2023-11-18T01:27:27;98698.00;;;3.80
20848;BMP180;10584;50.854;12.902;2023-11-18T01:32:49;98709.00;;;3.70
20848;BMP180;10584;50.854;12.902;2023-11-18T01:38:14;98714.00;;;3.70
20848;BMP180;10584;50.854;12.902;2023-11-18T01:43:36;98706.00;;;3.60
20848;BMP180;10584;50.854;12.902;2023-11-18T01:48:58;98702.00;;;3.60
20848;BMP180;10584;50.854;12.902;2023-11-18T01:54:21;98715.00;;;3.70
20848;BMP180;10584;50.854;12.902;2023-11-18T01:59:42;98714.00;;;3.70
20848;BMP180;10584;50.854;12.902;2023-11-18T02:05:05;98720.00;;;3.60
20848;BMP180;10584;50.854;12.902;2023-11-18T02:10:27;98716.00;;;3.70
20848;BMP180;10584;50.854;12.902;2023-11-18T02:15:49;98717.00;;;3.40
20848;BMP180;10584;50.854;12.902;2023-11-18T02:21:12;98728.00;;;3.60
20848;BMP180;10584;50.854;12.902;2023-11-18T02:26:35;98722.00;;;3.40
20848;BMP180;10584;50.854;12.902;2023-11-18T02:32:02;98735.00;;;3.50
20848;BMP180;10584;50.854;12.902;2023-11-18T02:37:26;98735.00;;;3.60
20848;BMP180;10584;50.854;12.902;2023-11-18T02:42:49;98741.00;;;3.50
20848;BMP180;10584;50.854;12.902;2023-11-18T02:48:15;98749.00;;;3.60
20848;BMP180;10584;50.854;12.902;2023-11-18T02:53:37;98750.00;;;3.40
20848;BMP180;10584;50.854;12.902;2023-11-18T02:58:58;98752.00;;;3.50
20848;BMP180;10584;50.854;12.902;2023-11-18T03:04:22;98741.00;;;3.40
20848;BMP180;10584;50.854;12.902;2023-11-18T03:09:45;98736.00;;;3.60
20848;BMP180;10584;50.854;12.902;2023-11-18T03:15:08;98751.00;;;3.60
20848;BMP180;10584;50.854;12.902;2023-11-18T03:20:31;98754.00;;;3.50
20848;BMP180;10584;50.854;12.902;2023-11-18T03:25:52;98749.00;;;3.60
20848;BMP180;10584;50.854;12.902;2023-11-18T03:31:14;98750.00;;;3.60
20848;BMP180;10584;50.854;12.902;2023-11-18T03:36:37;98758.00;;;3.70
20848;BMP180;10584;50.854;12.902;2023-11-18T03:41:58;98769.00;;;3.70
20848;BMP180;10584;50.854;12.902;2023-11-18T03:47:20;98770.00;;;3.60
20848;BMP180;10584;50.854;12.902;2023-11-18T03:52:45;98781.00;;;3.60
20848;BMP180;10584;50.854;12.902;2023-11-18T03:58:06;98776.00;;;3.50
20848;BMP180;10584;50.854;12.902;2023-11-18T04:03:30;98780.00;;;3.60
20848;BMP180;10584;50.854;12.902;2023-11-18T04:08:53;98780.00;;;3.40
20848;BMP180;10584;50.854;12.902;2023-11-18T04:14:14;98785.00;;;3.50
20848;BMP180;10584;50.854;12.902;2023-11-18T04:19:36;98796.00;;;3.40
20848;BMP180;10584;50.854;12.902;2023-11-18T04:24:59;98786.00;;;3.40
20848;BMP180;10584;50.854;12.902;2023-11-18T04:30:20;98792.00;;;3.20
20848;BMP180;10584;50.854;12.902;2023-11-18T04:35:42;98800.00;;;3.30
20848;BMP180;10584;50.854;12.902;2023-11-18T04:41:03;98808.00;;;3.30
20848;BMP180;10584;50.854;12.902;2023-11-18T04:46:26;98812.00;;;3.30
20848;BMP180;10584;50.854;12.902;2023-11-18T04:51:47;98802.00;;;3.20
20848;BMP180;10584;50.854;12.902;2023-11-18T04:57:09;98807.00;;;3.10
20848;BMP180;10584;50.854;12.902;2023-11-18T05:02:30;98808.00;;;3.30
20848;BMP180;10584;50.854;12.902;2023-11-18T05:07:52;98812.00;;;3.20
20848;BMP180;10584;50.854;12.902;2023-11-18T05:13:14;98802.00;;;3.20
20848;BMP180;10584;50.854;12.902;2023-11-18T05:18:37;98806.00;;;3.10
20848;BMP180;10584;50.854;12.902;2023-11-18T05:24:00;98796.00;;;3.20
20848;BMP180;10584;50.854;12.902;2023-11-18T05:29:22;98784.00;;;3.20
20848;BMP180;10584;50.854;12.902;2023-11-18T05:34:43;98797.00;;;3.10
20848;BMP180;10584;50.854;12.902;2023-11-18T05:40:06;98800.00;;;3.30
20848;BMP180;10584;50.854;12.902;2023-11-18T05:45:28;98803.00;;;3.20
20848;BMP180;10584;50.854;12.902;2023-11-18T05:50:53;98812.00;;;3.30
20848;BMP180;10584;50.854;12.902;2023-11-18T05:56:15;98816.00;;;3.30
20848;BMP180;10584;50.854;12.902;2023-11-18T06:01:41;98812.00;;;3.30
20848;BMP180;10584;50.854;12.902;2023-11-18T06:07:02;98805.00;;;3.20
20848;BMP180;10584;50.854;12.902;2023-11-18T06:12:24;98806.00;;;3.20
20848;BMP180;10584;50.854;12.902;2023-11-18T06:17:46;98811.00;;;3.20
20848;BMP180;10584;50.854;12.902;2023-11-18T06:23:07;98812.00;;;3.10
20848;BMP180;10584;50.854;12.902;2023-11-18T06:28:29;98809.00;;;3.10
20848;BMP180;10584;50.854;12.902;2023-11-18T06:33:50;98802.00;;;3.20
20848;BMP180;10584;50.854;12.902;2023-11-18T06:39:12;98791.00;;;3.30
20848;BMP180;10584;50.854;12.902;2023-11-18T06:44:34;98807.00;;;3.20
20848;BMP180;10584;50.854;12.902;2023-11-18T06:49:56;98810.00;;;3.10
20848;BMP180;10584;50.854;12.902;2023-11-18T06:55:18;98816.00;;;3.30
20848;BMP180;10584;50.854;12.902;2023-11-18T07:00:39;98814.00;;;3.30
20848;BMP180;10584;50.854;12.902;2023-11-18T07:06:01;98826.00;;;3.30
20848;BMP180;10584;50.854;12.902;2023-11-18T07:11:22;98826.00;;;3.30
20848;BMP180;10584;50.854;12.902;2023-11-18T07:16:44;98823.00;;;3.40
20848;BMP180;10584;50.854;12.902;2023-11-18T07:22:06;98828.00;;;3.40
20848;BMP180;10584;50.854;12.902;2023-11-18T07:27:28;98841.00;;;3.50
20848;BMP180;10584;50.854;12.902;2023-11-18T07:32:49;98862.00;;;3.30
20848;BMP180;10584;50.854;12.902;2023-11-18T07:38:12;98866.00;;;3.30
20848;BMP180;10584;50.854;12.902;2023-11-18T07:43:34;98865.00;;;3.40
20848;BMP180;10584;50.854;12.902;2023-11-18T07:48:58;98858.00;;;3.30
20848;BMP180;10584;50.854;12.902;2023-11-18T07:54:19;98859.00;;;3.50
20848;BMP180;10584;50.854;12.902;2023-11-18T07:59:41;98872.00;;;3.50
20848;BMP180;10584;50.854;12.902;2023-11-18T08:05:06;98878.00;;;3.60
20848;BMP180;10584;50.854;12.902;2023-11-18T08:10:38;98879.00;;;3.50
20848;BMP180;10584;50.854;12.902;2023-11-18T08:16:00;98886.00;;;3.70
20848;BMP180;10584;50.854;12.902;2023-11-18T08:21:23;98893.00;;;3.70
20848;BMP180;10584;50.854;12.902;2023-11-18T08:26:45;98887.00;;;3.80
20848;BMP180;10584;50.854;12.902;2023-11-18T08:32:07;98892.00;;;3.70
20848;BMP180;10584;50.854;12.902;2023-11-18T08:37:31;98895.00;;;4.00
20848;BMP180;10584;50.854;12.902;2023-11-18T08:42:54;98889.00;;;3.90
20848;BMP180;10584;50.854;12.902;2023-11-18T08:48:17;98894.00;;;3.90
20848;BMP180;10584;50.854;12.902;2023-11-18T08:53:42;98898.00;;;4.10
20848;BMP180;10584;50.854;12.902;2023-11-18T08:59:03;98892.00;;;4.20
20848;BMP180;10584;50.854;12.902;2023-11-18T09:04:29;98878.00;;;4.20
20848;BMP180;10584;50.854;12.902;2023-11-18T09:09:51;98892.00;;;4.20
20848;BMP180;10584;50.854;12.902;2023-11-18T09:15:14;98901.00;;;4.10
20848;BMP180;10584;50.854;12.902;2023-11-18T09:20:43;98898.00;;;4.40
20848;BMP180;10584;50.854;12.902;2023-11-18T09:26:07;98904.00;;;4.50
20848;BMP180;10584;50.854;12.902;2023-11-18T09:31:31;98917.00;;;4.60
20848;BMP180;10584;50.854;12.902;2023-11-18T09:36:55;98918.00;;;4.70
20848;BMP180;10584;50.854;12.902;2023-11-18T09:42:16;98905.00;;;4.50
20848;BMP180;10584;50.854;12.902;2023-11-18T09:47:43;98911.00;;;4.60
20848;BMP180;10584;50.854;12.902;2023-11-18T09:53:09;98899.00;;;4.60
20848;BMP180;10584;50.854;12.902;2023-11-18T09:58:40;98918.00;;;4.70
20848;BMP180;10584;50.854;12.902;2023-11-18T10:04:03;98917.00;;;4.80
20848;BMP180;10584;50.854;12.902;2023-11-18T10:09:27;98921.00;;;4.70
20848;BMP180;10584;50.854;12.902;2023-11-18T10:14:49;98921.00;;;4.50
20848;BMP180;10584;50.854;12.902;2023-11-18T10:20:13;98923.00;;;4.80
20848;BMP180;10584;50.854;12.902;2023-11-18T10:25:43;98924.00;;;4.90
20848;BMP180;10584;50.854;12.902;2023-11-18T10:31:07;98915.00;;;5.10
20848;BMP180;10584;50.854;12.902;2023-11-18T10:36:31;98880.00;;;5.20
20848;BMP180;10584;50.854;12.902;2023-11-18T10:41:59;98887.00;;;5.40
20848;BMP180;10584;50.854;12.902;2023-11-18T10:47:21;98879.00;;;5.50
20848;BMP180;10584;50.854;12.902;2023-11-18T10:52:44;98877.00;;;5.60
20848;BMP180;10584;50.854;12.902;2023-11-18T10:58:07;98885.00;;;5.50
20848;BMP180;10584;50.854;12.902;2023-11-18T11:03:29;98891.00;;;5.50
20848;BMP180;10584;50.854;12.902;2023-11-18T11:08:54;98897.00;;;5.40
20848;BMP180;10584;50.854;12.902;2023-11-18T11:14:18;98904.00;;;5.20
20848;BMP180;10584;50.854;12.902;2023-11-18T11:19:59;98889.00;;;5.30
20848;BMP180;10584;50.854;12.902;2023-11-18T11:36:41;98887.00;;;5.30
20848;BMP180;10584;50.854;12.902;2023-11-18T11:42:04;98883.00;;;5.30
20848;BMP180;10584;50.854;12.902;2023-11-18T11:47:31;98872.00;;;5.30
20848;BMP180;10584;50.854;12.902;2023-11-18T11:53:10;98862.00;;;5.30
20848;BMP180;10584;50.854;12.902;2023-11-18T11:58:36;98860.00;;;5.30
20848;BMP180;10584;50.854;12.902;2023-11-18T12:03:59;98842.00;;;5.30
20848;BMP180;10584;50.854;12.902;2023-11-18T12:09:31;98829.00;;;5.40
20848;BMP180;10584;50.854;12.902;2023-11-18T12:14:59;98828.00;;;5.40
20848;BMP180;10584;50.854;12.902;2023-11-18T12:20:44;98815.00;;;5.30
20848;BMP180;10584;50.854;12.902;2023-11-18T12:26:39;98797.00;;;5.30
20848;BMP180;10584;50.854;12.902;2023-11-18T12:32:05;98785.00;;;5.30
20848;BMP180;10584;50.854;12.902;2023-11-18T12:43:16;98764.00;;;5.50
20848;BMP180;10584;50.854;12.902;2023-11-18T12:48:43;98760.00;;;5.60
20848;BMP180;10584;50.854;12.902;2023-11-18T12:54:05;98759.00;;;6.00
20848;BMP180;10584;50.854;12.902;2023-11-18T12:59:28;98753.00;;;6.30
20848;BMP180;10584;50.854;12.902;2023-11-18T13:04:51;98737.00;;;6.60
20848;BMP180;10584;50.854;12.902;2023-11-18T13:10:18;98728.00;;;6.80
20848;BMP180;10584;50.854;12.902;2023-11-18T13:15:39;98741.00;;;6.70
20848;BMP180;10584;50.854;12.902;2023-11-18T13:21:01;98753.00;;;6.70
20848;BMP180;10584;50.854;12.902;2023-11-18T13:26:24;98771.00;;;6.70
20848;BMP180;10584;50.854;12.902;2023-11-18T13:31:46;98770.00;;;6.60
20848;BMP180;10584;50.854;12.902;2023-11-18T13:37:12;98766.00;;;6.70
20848;BMP180;10584;50.854;12.902;2023-11-18T13:42:39;98761.00;;;6.50
20848;BMP180;10584;50.854;12.902;2023-11-18T13:48:00;98775.00;;;6.50
20848;BMP180;10584;50.854;12.902;2023-11-18T13:53:23;98762.00;;;6.50
20848;BMP180;10584;50.854;12.902;2023-11-18T13:58:45;98757.00;;;6.50
20848;BMP180;10584;50.854;12.902;2023-11-18T14:04:07;98765.00;;;6.10
20848;BMP180;10584;50.854;12.902;2023-11-18T14:09:33;98759.00;;;6.20
20848;BMP180;10584;50.854;12.902;2023-11-18T14:15:01;98755.00;;;6.10
20848;BMP180;10584;50.854;12.902;2023-11-18T14:20:24;98746.00;;;6.10
20848;BMP180;10584;50.854;12.902;2023-11-18T14:25:46;98743.00;;;6.00
20848;BMP180;10584;50.854;12.902;2023-11-18T14:31:08;98741.00;;;5.80
20848;BMP180;10584;50.854;12.902;2023-11-18T14:36:31;98729.00;;;5.70
20848;BMP180;10584;50.854;12.902;2023-11-18T14:41:53;98717.00;;;5.60
20848;BMP180;10584;50.854;12.902;2023-11-18T14:47:15;98719.00;;;5.40
20848;BMP180;10584;50.854;12.902;2023-11-18T14:52:37;98707.00;;;5.40
20848;BMP180;10584;50.854;12.902;2023-11-18T14:58:04;98701.00;;;5.20
20848;BMP180;10584;50.854;12.902;2023-11-18T15:03:26;98711.00;;;5.10
20848;BMP180;10584;50.854;12.902;2023-11-18T15:08:47;98715.00;;;4.90
20848;BMP180;10584;50.854;12.902;2023-11-18T15:14:09;98695.00;;;4.80
20848;BMP180;10584;50.854;12.902;2023-11-18T15:19:33;98699.00;;;4.70
20848;BMP180;10584;50.854;12.902;2023-11-18T15:24:54;98664.00;;;4.50
20848;BMP180;10584;50.854;12.902;2023-11-18T15:30:21;98660.00;;;4.40
20848;BMP180;10584;50.854;12.902;2023-11-18T15:35:45;98664.00;;;4.20
20848;BMP180;10584;50.854;12.902;2023-11-18T15:41:07;98657.00;;;4.10
20848;BMP180;10584;50.854;12.902;2023-11-18T15:46:29;98650.00;;;4.00
20848;BMP180;10584;50.854;12.902;2023-11-18T15:51:51;98636.00;;;3.80
20848;BMP180;10584;50.854;12.902;2023-11-18T15:57:13;98648.00;;;3.80
20848;BMP180;10584;50.854;12.902;2023-11-18T16:02:34;98636.00;;;3.60
20848;BMP180;10584;50.854;12.902;2023-11-18T16:07:56;98617.00;;;3.60
20848;BMP180;10584;50.854;12.902;2023-11-18T16:13:18;98622.00;;;3.60
20848;BMP180;10584;50.854;12.902;2023-11-18T16:18:41;98623.00;;;3.60
20848;BMP180;10584;50.854;12.902;2023-11-18T16:24:04;98624.00;;;3.60
20848;BMP180;10584;50.854;12.902;2023-11-18T16:29:26;98617.00;;;3.60
20848;BMP180;10584;50.854;12.902;2023-11-18T16:34:47;98617.00;;;3.60
20848;BMP180;10584;50.854;12.902;2023-11-18T16:40:13;98608.00;;;3.50
20848;BMP180;10584;50.854;12.902;2023-11-18T16:45:35;98602.00;;;3.50
20848;BMP180;10584;50.854;12.902;2023-11-18T16:50:58;98590.00;;;3.50
20848;BMP180;10584;50.854;12.902;2023-11-18T16:56:20;98598.00;;;3.40
20848;BMP180;10584;50.854;12.902;2023-11-18T17:01:42;98603.00;;;3.50
20848;BMP180;10584;50.854;12.902;2023-11-18T17:07:03;98600.00;;;3.50
20848;BMP180;10584;50.854;12.902;2023-11-18T17:12:25;98582.00;;;3.50
20848;BMP180;10584;50.854;12.902;2023-11-18T17:17:48;98586.00;;;3.50
20848;BMP180;10584;50.854;12.902;2023-11-18T17:23:11;98580.00;;;3.60
20848;BMP180;10584;50.854;12.902;2023-11-18T17:28:36;98579.00;;;3.60
20848;BMP180;10584;50.854;12.902;2023-11-18T17:33:57;98572.00;;;3.50
20848;BMP180;10584;50.854;12.902;2023-11-18T17:39:19;98552.00;;;3.60
20848;BMP180;10584;50.854;12.902;2023-11-18T17:44:41;98538.00;;;3.60
20848;BMP180;10584;50.854;12.902;2023-11-18T17:50:06;98559.00;;;3.70
20848;BMP180;10584;50.854;12.902;2023-11-18T17:55:30;98548.00;;;3.80
20848;BMP180;10584;50.854;12.902;2023-11-18T18:00:52;98544.00;;;3.80
20848;BMP180;10584;50.854;12.902;2023-11-18T18:06:14;98540.00;;;3.90
20848;BMP180;10584;50.854;12.902;2023-11-18T18:11:36;98518.00;;;3.90
20848;BMP180;10584;50.854;12.902;2023-11-18T18:16:58;98506.00;;;4.00
20848;BMP180;10584;50.854;12.902;2023-11-18T18:22:19;98499.00;;;4.00
20848;BMP180;10584;50.854;12.902;2023-11-18T18:27:41;98496.00;;;4.00
20848;BMP180;10584;50.854;12.902;2023-11-18T18:33:06;98497.00;;;4.00
20848;BMP180;10584;50.854;12.902;2023-11-18T18:38:30;98490.00;;;4.10
20848;BMP180;10584;50.854;12.902;2023-11-18T18:43:51;98474.00;;;4.10
20848;BMP180;10584;50.854;12.902;2023-11-18T18:49:13;98467.00;;;4.20
20848;BMP180;10584;50.854;12.902;2023-11-18T18:54:37;98440.00;;;4.20
20848;BMP180;10584;50.854;12.902;2023-11-18T18:59:58;98442.00;;;4.20
20848;BMP180;10584;50.854;12.902;2023-11-18T19:05:20;98427.00;;;4.20
20848;BMP180;10584;50.854;12.902;2023-11-18T19:10:44;98432.00;;;4.30
20848;BMP180;10584;50.854;12.902;2023-11-18T19:16:06;98419.00;;;4.30
20848;BMP180;10584;50.854;12.902;2023-11-18T19:21:29;98407.00;;;4.30
20848;BMP180;10584;50.854;12.902;2023-11-18T19:26:50;98417.00;;;4.30
20848;BMP180;10584;50.854;12.902;2023-11-18T19:32:12;98410.00;;;4.30
20848;BMP180;10584;50.854;12.902;2023-11-18T19:37:34;98417.00;;;4.40
20848;BMP180;10584;50.854;12.902;2023-11-18T19:42:55;98403.00;;;4.40
20848;BMP180;10584;50.854;12.902;2023-11-18T19:48:17;98383.00;;;4.50
20848;BMP180;10584;50.854;12.902;2023-11-18T19:53:41;98382.00;;;4.50
20848;BMP180;10584;50.854;12.902;2023-11-18T19:59:02;98383.00;;;4.50
20848;BMP180;10584;50.854;12.902;2023-11-18T20:04:26;98367.00;;;4.60
20848;BMP180;10584;50.854;12.902;2023-11-18T20:09:48;98361.00;;;4.50
20848;BMP180;10584;50.854;12.902;2023-11-18T20:15:10;98361.00;;;4.60
20848;BMP180;10584;50.854;12.902;2023-11-18T20:20:33;98350.00;;;4.60
20848;BMP180;10584;50.854;12.902;2023-11-18T20:25:55;98347.00;;;4.60
20848;BMP180;10584;50.854;12.902;2023-11-18T20:31:17;98345.00;;;4.60
20848;BMP180;10584;50.854;12.902;2023-11-18T20:36:39;98341.00;;;4.60
20848;BMP180;10584;50.854;12.902;2023-11-18T20:42:01;98347.00;;;4.60
20848;BMP180;10584;50.854;12.902;2023-11-18T20:47:22;98333.00;;;4.60
20848;BMP180;10584;50.854;12.902;2023-11-18T20:52:44;98329.00;;;4.60
20848;BMP180;10584;50.854;12.902;2023-11-18T20:58:06;98326.00;;;4.60
20848;BMP180;10584;50.854;12.902;2023-11-18T21:03:28;98312.00;;;4.50
20848;BMP180;10584;50.854;12.902;2023-11-18T21:08:50;98306.00;;;4.50
20848;BMP180;10584;50.854;12.902;2023-11-18T21:14:12;98282.00;;;4.50
20848;BMP180;10584;50.854;12.902;2023-11-18T21:19:33;98283.00;;;4.50
20848;BMP180;10584;50.854;12.902;2023-11-18T21:24:55;98303.00;;;4.50
20848;BMP180;10584;50.854;12.902;2023-11-18T21:30:18;98283.00;;;4.60
20848;BMP180;10584;50.854;12.902;2023-11-18T21:35:43;98258.00;;;4.40
20848;BMP180;10584;50.854;12.902;2023-11-18T21:41:05;98246.00;;;4.50
20848;BMP180;10584;50.854;12.902;2023-11-18T21:46:28;98229.00;;;4.50
20848;BMP180;10584;50.854;12.902;2023-11-18T21:51:49;98237.00;;;4.40
20848;BMP180;10584;50.854;12.902;2023-11-18T21:57:11;98231.00;;;4.50
20848;BMP180;10584;50.854;12.902;2023-11-18T22:02:34;98227.00;;;4.40
20848;BMP180;10584;50.854;12.902;2023-11-18T22:07:56;98212.00;;;4.40
20848;BMP180;10584;50.854;12.902;2023-11-18T22:13:17;98191.00;;;4.30
20848;BMP180;10584;50.854;12.902;2023-11-18T22:18:39;98190.00;;;4.40
20848;BMP180;10584;50.854;12.902;2023-11-18T22:24:01;98162.00;;;4.40
20848;BMP180;10584;50.854;12.902;2023-11-18T22:29:23;98151.00;;;4.30
20848;BMP180;10584;50.854;12.902;2023-11-18T22:34:44;98152.00;;;4.30
20848;BMP180;10584;50.854;12.902;2023-11-18T22:40:08;98148.00;;;4.20
20848;BMP180;10584;50.854;12.902;2023-11-18T22:45:37;98117.00;;;4.20
20848;BMP180;10584;50.854;12.902;2023-11-18T22:50:59;98131.00;;;4.10
20848;BMP180;10584;50.854;12.902;2023-11-18T22:56:21;98113.00;;;4.00
20848;BMP180;10584;50.854;12.902;2023-11-18T23:01:45;98115.00;;;4.10
20848;BMP180;10584;50.854;12.902;2023-11-18T23:07:07;98088.00;;;4.00
20848;BMP180;10584;50.854;12.902;2023-11-18T23:12:28;98069.00;;;4.00
20848;BMP180;10584;50.854;12.902;2023-11-18T23:17:51;98047.00;;;3.70
20848;BMP180;10584;50.854;12.902;2023-11-18T23:23:13;98018.00;;;3.70
20848;BMP180;10584;50.854;12.902;2023-11-18T23:28:35;97990.00;;;3.80
20848;BMP180;10584;50.854;12.902;2023-11-18T23:33:57;97982.00;;;3.70
20848;BMP180;10584;50.854;12.902;2023-11-18T23:39:22;97968.00;;;3.70
20848;BMP180;10584;50.854;12.902;2023-11-18T23:44:49;97940.00;;;3.60
20848;BMP180;10584;50.854;12.902;2023-11-18T23:50:11;97932.00;;;3.60
20848;BMP180;10584;50.854;12.902;2023-11-18T23:55:33;97917.00;;;3.60
